Time;durP1;ratioP1;P1;durP2;ratioP2;P2;SDS_P1;SDS_P2;PMS_P1;PMS_P2;Temp;Humidity;BMP_temperature;BMP_pressure;BME280_temperature;BME280_humidity;BME280_pressure;Samples;Min_cycle;Max_cycle;Signal;HPM_P1;HPM_P2
2022/03/04 00:01:29;;;;;;;72.45;26.83;;;;;;;-2.58;63.14;99389.09;5053182;28;20491;-79
2022/03/04 00:03:57;;;;;;;62.50;26.02;;;;;;;-2.55;63.13;99396.91;5053950;28;20076;-79
2022/03/04 00:06:25;;;;;;;56.42;25.48;;;;;;;-2.61;63.08;99394.03;5053822;28;20049;-79
2022/03/04 00:08:54;;;;;;;55.15;24.85;;;;;;;-2.56;63.10;99397.72;5052614;28;20052;-80
2022/03/04 00:11:21;;;;;;;55.80;25.00;;;;;;;-2.61;62.97;99388.06;5053848;28;20061;-79
2022/03/04 00:13:48;;;;;;;56.90;24.95;;;;;;;-2.75;63.05;99356.72;5052918;28;20060;-80
2022/03/04 00:16:15;;;;;;;60.70;27.25;;;;;;;-2.76;63.19;99381.38;5037514;28;20049;-80
2022/03/04 00:18:42;;;;;;;60.42;27.27;;;;;;;-2.75;63.36;99395.94;5054599;28;20060;-80
2022/03/04 00:21:10;;;;;;;67.38;31.33;;;;;;;-2.85;63.74;99378.41;5068104;28;20061;-78
2022/03/04 00:23:37;;;;;;;64.30;28.08;;;;;;;-2.88;63.25;99365.47;5069555;28;20052;-79
2022/03/04 00:26:04;;;;;;;67.88;30.52;;;;;;;-2.85;63.79;99380.94;5058423;28;20139;-80
2022/03/04 00:28:32;;;;;;;63.33;29.73;;;;;;;-2.91;63.31;99390.88;5051666;28;20060;-79
2022/03/04 00:31:02;;;;;;;62.80;28.70;;;;;;;-2.97;63.44;99377.78;5052249;28;20529;-79
2022/03/04 00:33:29;;;;;;;61.30;28.13;;;;;;;-3.04;64.01;99385.97;5052992;28;20084;-80
2022/03/04 00:35:56;;;;;;;68.50;32.10;;;;;;;-3.17;64.05;99367.47;5052512;28;20521;-81
2022/03/04 00:38:24;;;;;;;88.28;37.60;;;;;;;-3.30;64.62;99357.44;5053307;28;20049;-80
2022/03/04 00:40:50;;;;;;;87.65;39.20;;;;;;;-3.21;64.55;99372.34;5051405;28;20554;-80
2022/03/04 00:43:18;;;;;;;102.32;43.08;;;;;;;-3.21;65.05;99378.31;5052934;28;20152;-79
2022/03/04 00:45:45;;;;;;;89.30;38.67;;;;;;;-3.27;64.93;99372.91;5051952;28;20053;-79
2022/03/04 00:48:12;;;;;;;89.13;38.55;;;;;;;-3.22;65.05;99366.38;5053830;28;20119;-79
2022/03/04 00:50:39;;;;;;;77.68;36.60;;;;;;;-3.20;64.99;99358.78;5052991;28;20444;-80
2022/03/04 00:53:06;;;;;;;95.63;42.28;;;;;;;-3.15;65.18;99354.78;5055979;28;20500;-78
2022/03/04 00:55:37;;;;;;;105.75;44.80;;;;;;;-3.12;65.27;99347.25;5054293;28;20107;-79
2022/03/04 00:58:06;;;;;;;85.95;39.80;;;;;;;-3.09;65.87;99360.19;5053600;28;20501;-79
2022/03/04 01:00:34;;;;;;;102.15;46.03;;;;;;;-2.98;65.75;99378.59;5056353;28;20052;-80
2022/03/04 01:03:03;;;;;;;95.18;42.40;;;;;;;-3.23;65.69;99341.59;5056033;28;20044;-79
2022/03/04 01:05:30;;;;;;;81.15;36.58;;;;;;;-3.16;65.30;99381.09;5056326;28;20475;-79
2022/03/04 01:07:57;;;;;;;60.97;28.33;;;;;;;-3.34;65.63;99363.19;5056591;28;20059;-80
2022/03/04 01:10:24;;;;;;;52.50;23.58;;;;;;;-3.54;65.58;99375.81;5057605;28;20627;-79
2022/03/04 01:12:51;;;;;;;44.85;20.73;;;;;;;-3.71;65.70;99348.53;5076441;28;20063;-79
2022/03/04 01:15:18;;;;;;;41.20;19.45;;;;;;;-3.79;65.70;99350.69;5073093;28;20101;-80
2022/03/04 01:17:45;;;;;;;39.63;18.45;;;;;;;-4.01;65.78;99335.06;5074011;28;20063;-79
2022/03/04 01:20:12;;;;;;;39.88;18.90;;;;;;;-3.90;65.72;99354.38;5057152;28;20067;-79
2022/03/04 01:22:39;;;;;;;40.63;17.42;;;;;;;-4.01;65.87;99353.81;5022126;28;20650;-79
2022/03/04 01:25:06;;;;;;;37.30;16.67;;;;;;;-3.98;65.75;99364.19;5054502;28;20087;-79
2022/03/04 01:27:34;;;;;;;38.88;16.73;;;;;;;-3.97;65.71;99368.47;5055594;28;20135;-79
2022/03/04 01:30:04;;;;;;;36.85;15.98;;;;;;;-4.05;65.57;99353.56;5055250;28;20057;-79
2022/03/04 01:32:31;;;;;;;;;;;;;;;-4.03;65.25;99350.28;5056123;28;20091;-79
2022/03/04 01:34:59;;;;;;;40.47;16.63;;;;;;;-3.98;65.23;99353.97;5055445;28;19951;-79
2022/03/04 01:37:26;;;;;;;34.60;15.63;;;;;;;-3.97;65.42;99357.41;5054194;28;20076;-80
2022/03/04 01:39:53;;;;;;;33.78;13.68;;;;;;;-3.94;65.11;99365.19;5055279;28;20079;-78
2022/03/04 01:42:20;;;;;;;29.50;12.70;;;;;;;-4.24;65.35;99321.97;5055070;28;20055;-79
2022/03/04 01:44:47;;;;;;;34.13;12.85;;;;;;;-4.02;65.40;99352.06;5042176;28;20052;-79
2022/03/04 01:47:14;;;;;;;29.05;12.07;;;;;;;-3.94;65.10;99352.44;5054163;28;20456;-79
2022/03/04 01:49:41;;;;;;;26.92;12.65;;;;;;;-3.98;64.70;99345.41;5055385;28;20048;-78
2022/03/04 01:52:08;;;;;;;27.42;11.90;;;;;;;-4.01;64.82;99366.56;5055081;28;20060;-78
2022/03/04 01:54:36;;;;;;;24.98;11.60;;;;;;;-4.03;64.90;99354.53;5055256;28;20471;-79
2022/03/04 01:57:03;;;;;;;32.33;11.20;;;;;;;-3.94;64.95;99371.22;5055500;28;20049;-80
2022/03/04 01:59:31;;;;;;;25.38;10.20;;;;;;;-3.93;64.66;99370.41;5055140;28;20087;-79
2022/03/04 02:01:58;;;;;;;26.00;10.85;;;;;;;-3.94;64.95;99362.66;5053644;28;20057;-80
2022/03/04 02:04:26;;;;;;;20.67;9.00;;;;;;;-3.89;64.65;99362.88;5055047;28;20058;-77
2022/03/04 02:06:53;;;;;;;19.65;8.48;;;;;;;-3.85;64.35;99363.16;5055117;28;20053;-77
2022/03/04 02:09:20;;;;;;;19.70;9.15;;;;;;;-3.85;64.32;99377.56;5055209;28;20144;-79
2022/03/04 02:11:48;;;;;;;19.33;8.68;;;;;;;-3.90;64.48;99354.38;5054501;28;20072;-78
2022/03/04 02:14:15;;;;;;;24.38;9.85;;;;;;;-3.82;64.15;99363.31;5055447;28;20512;-79
2022/03/04 02:16:52;;;;;;;22.15;8.90;;;;;;;-3.85;64.32;99367.34;5054507;28;20159;-80
2022/03/04 02:19:21;;;;;;;21.13;8.75;;;;;;;-3.98;64.22;99358.19;5038250;28;20063;-80
2022/03/04 02:22:07;;;;;;;19.55;8.60;;;;;;;-3.91;64.33;99376.47;5054973;28;20061;-79
2022/03/04 02:24:34;;;;;;;20.90;9.00;;;;;;;-3.87;64.26;99358.75;5055321;28;20049;-79
2022/03/04 02:27:02;;;;;;;23.35;9.55;;;;;;;-3.87;63.87;99351.09;5054747;28;20053;-79
2022/03/04 02:29:31;;;;;;;25.63;9.30;;;;;;;-4.00;64.12;99324.06;5055058;28;20087;-79
2022/03/04 02:31:58;;;;;;;22.02;9.25;;;;;;;-3.83;64.04;99386.19;5053666;28;20052;-81
2022/03/04 02:34:25;;;;;;;19.63;8.68;;;;;;;-3.96;64.40;99369.34;5054484;28;20049;-79
2022/03/04 02:36:52;;;;;;;19.73;8.85;;;;;;;-4.18;64.48;99344.38;5054016;28;20468;-79
2022/03/04 02:39:19;;;;;;;23.67;8.13;;;;;;;-4.04;64.81;99363.84;5054704;28;20063;-78
2022/03/04 02:41:46;;;;;;;23.85;8.73;;;;;;;-3.95;64.23;99373.66;5054362;28;20497;-78
2022/03/04 02:44:13;;;;;;;17.85;9.25;;;;;;;-3.98;64.13;99388.78;5054193;28;20112;-80
2022/03/04 02:46:41;;;;;;;21.95;8.40;;;;;;;-4.04;64.15;99383.38;5056988;28;20504;-78
2022/03/04 02:49:10;;;;;;;20.50;9.05;;;;;;;-4.13;64.59;99365.91;5055816;28;20049;-79
2022/03/04 02:51:38;;;;;;;21.90;8.00;;;;;;;-4.06;64.70;99362.91;5053379;28;20132;-79
2022/03/04 02:54:05;;;;;;;17.75;8.25;;;;;;;-4.03;64.66;99363.03;5050256;28;20151;-79
2022/03/04 02:56:32;;;;;;;17.70;8.07;;;;;;;-4.08;64.59;99364.50;5051165;28;20075;-80
2022/03/04 02:58:59;;;;;;;20.15;7.90;;;;;;;-4.05;64.45;99382.50;5052905;28;20049;-78
2022/03/04 03:01:26;;;;;;;20.63;7.85;;;;;;;-4.04;64.80;99379.16;5052515;28;20055;-80
2022/03/04 03:03:53;;;;;;;14.38;7.20;;;;;;;-4.15;64.54;99362.38;5052318;28;20052;-79
2022/03/04 03:06:20;;;;;;;18.92;8.38;;;;;;;-4.23;64.67;99351.78;5051263;28;20052;-79
2022/03/04 03:08:47;;;;;;;17.27;8.05;;;;;;;-4.33;64.89;99339.31;5052710;28;20049;-80
2022/03/04 03:11:14;;;;;;;17.90;7.95;;;;;;;-4.23;64.88;99378.97;5052869;28;20052;-79
2022/03/04 03:13:41;;;;;;;15.57;8.02;;;;;;;-4.14;64.78;99359.06;5047303;28;20176;-80
2022/03/04 03:16:08;;;;;;;19.85;8.00;;;;;;;-4.17;65.17;99357.22;5045009;28;20418;-80
2022/03/04 03:18:36;;;;;;;18.15;8.32;;;;;;;-4.22;65.07;99345.00;5053589;28;20102;-81
2022/03/04 03:21:03;;;;;;;20.35;8.18;;;;;;;-4.18;65.23;99336.72;5053643;28;20045;-79
2022/03/04 03:23:30;;;;;;;17.52;7.80;;;;;;;-4.29;65.08;99325.06;5053326;28;20048;-80
2022/03/04 03:25:57;;;;;;;20.15;7.97;;;;;;;-4.04;65.36;99357.84;5053489;28;20103;-80
2022/03/04 03:28:24;;;;;;;16.15;8.15;;;;;;;-4.18;65.12;99335.03;5053827;28;20060;-80
2022/03/04 03:30:52;;;;;;;19.20;8.23;;;;;;;-4.06;65.18;99356.94;5040294;28;20053;-80
2022/03/04 03:33:19;;;;;;;17.20;8.50;;;;;;;-4.04;64.97;99361.31;5052509;28;20053;-81
2022/03/04 03:35:45;;;;;;;21.33;8.15;;;;;;;-4.12;64.93;99360.88;5052402;28;20076;-82
2022/03/04 03:38:14;;;;;;;17.05;7.75;;;;;;;-4.16;65.08;99342.78;5051327;28;20045;-80
2022/03/04 03:40:41;;;;;;;18.52;7.70;;;;;;;-4.13;65.50;99354.03;5049878;28;20141;-80
2022/03/04 03:43:28;;;;;;;15.85;7.80;;;;;;;-4.04;65.23;99368.06;5049784;28;20083;-79
2022/03/04 03:45:55;;;;;;;18.95;7.65;;;;;;;-4.03;65.04;99369.81;5053065;28;20496;-80
2022/03/04 03:48:22;;;;;;;20.92;8.10;;;;;;;-4.02;65.38;99379.22;5052174;28;20052;-79
2022/03/04 03:50:49;;;;;;;20.48;7.65;;;;;;;-4.07;65.04;99381.53;5053663;28;20053;-79
2022/03/04 03:53:16;;;;;;;22.50;8.38;;;;;;;-4.30;65.07;99338.59;5053565;28;20063;-79
2022/03/04 03:55:43;;;;;;;15.40;7.18;;;;;;;-4.17;65.10;99376.75;5054543;28;20049;-81
2022/03/04 03:58:10;;;;;;;19.75;8.30;;;;;;;-4.20;65.54;99384.22;5054800;28;20056;-80
2022/03/04 04:00:37;;;;;;;16.80;7.63;;;;;;;-4.21;65.59;99382.50;5038090;28;20044;-81
2022/03/04 04:03:04;;;;;;;18.63;8.93;;;;;;;-4.28;65.69;99380.38;5068852;28;20079;-79
2022/03/04 04:05:31;;;;;;;17.00;8.00;;;;;;;-4.36;65.99;99377.44;5070814;28;20049;-78
2022/03/04 04:07:58;;;;;;;17.40;7.57;;;;;;;-4.32;65.92;99392.97;5066183;28;20041;-80
2022/03/04 04:10:25;;;;;;;20.67;7.78;;;;;;;-4.36;65.81;99365.53;5052730;28;20493;-79
2022/03/04 04:12:52;;;;;;;17.65;7.35;;;;;;;-4.28;65.90;99395.69;5053124;28;20088;-77
2022/03/04 04:15:19;;;;;;;18.52;7.95;;;;;;;-4.32;66.05;99397.22;5052575;28;20107;-83
2022/03/04 04:17:46;;;;;;;21.50;8.23;;;;;;;-4.44;66.64;99378.69;5053113;28;20049;-81
2022/03/04 04:20:13;;;;;;;19.75;8.73;;;;;;;-4.31;66.07;99393.84;5055120;28;20501;-79
2022/03/04 04:22:40;;;;;;;19.55;7.90;;;;;;;-4.70;65.81;99339.00;5050807;28;20057;-79
2022/03/04 04:25:08;;;;;;;16.52;7.05;;;;;;;-4.28;65.80;99410.97;5052394;28;20080;-79
2022/03/04 04:27:35;;;;;;;17.48;7.90;;;;;;;-4.32;65.78;99398.06;5052677;28;20056;-78
2022/03/04 04:30:03;;;;;;;16.13;7.53;;;;;;;-4.27;65.99;99415.31;5044345;28;20044;-80
2022/03/04 04:32:31;;;;;;;18.23;8.18;;;;;;;-4.34;66.01;99388.59;5052626;28;20055;-80
2022/03/04 04:34:58;;;;;;;19.33;7.75;;;;;;;-4.14;65.78;99416.03;5052780;28;20049;-80
2022/03/04 04:37:25;;;;;;;18.13;7.90;;;;;;;-4.23;65.70;99395.16;5056087;28;20052;-79
2022/03/04 04:39:52;;;;;;;21.92;8.65;;;;;;;-4.01;65.41;99417.59;5056380;28;20562;-80
2022/03/04 04:42:19;;;;;;;21.27;8.77;;;;;;;-4.13;65.57;99406.72;5053252;28;20483;-81
2022/03/04 04:44:46;;;;;;;20.42;8.45;;;;;;;-4.01;65.31;99406.50;5056352;28;20048;-81
2022/03/04 04:47:13;;;;;;;19.23;8.02;;;;;;;-3.86;65.04;99429.44;5056957;28;20076;-79
2022/03/04 04:49:41;;;;;;;18.35;8.63;;;;;;;-4.07;64.69;99385.75;5057092;28;20049;-81
2022/03/04 04:52:08;;;;;;;18.65;8.48;;;;;;;-3.84;65.00;99421.03;5056571;28;20136;-79
2022/03/04 04:54:35;;;;;;;20.77;8.68;;;;;;;-3.76;65.12;99427.44;5059881;28;20071;-79
2022/03/04 04:57:03;;;;;;;20.23;8.60;;;;;;;-3.80;64.95;99415.31;5074266;28;20144;-81
2022/03/04 04:59:30;;;;;;;19.00;8.80;;;;;;;-3.62;64.93;99451.13;5074390;28;20059;-79
2022/03/04 05:01:57;;;;;;;19.05;8.70;;;;;;;-3.59;64.76;99464.09;5076732;28;20056;-79
2022/03/04 05:04:24;;;;;;;20.05;9.25;;;;;;;-3.48;64.71;99459.53;5063889;28;20071;-79
2022/03/04 05:06:51;;;;;;;27.17;10.80;;;;;;;-3.45;64.40;99457.13;5058231;28;20052;-80
2022/03/04 05:09:19;;;;;;;20.35;8.73;;;;;;;-3.43;64.17;99447.00;5055888;28;20053;-79
2022/03/04 05:11:46;;;;;;;25.38;10.25;;;;;;;-3.46;64.46;99450.28;5055370;28;20065;-80
2022/03/04 05:14:13;;;;;;;22.48;9.68;;;;;;;-3.54;64.40;99414.13;5056200;28;20045;-80
2022/03/04 05:16:40;;;;;;;23.20;9.70;;;;;;;-3.36;64.25;99429.50;5056056;28;20065;-80
2022/03/04 05:19:07;;;;;;;22.27;10.25;;;;;;;-3.36;63.99;99432.06;5052022;28;20147;-79
2022/03/04 05:21:34;;;;;;;23.17;10.40;;;;;;;-3.19;64.06;99444.84;5055874;28;20143;-79
2022/03/04 05:24:03;;;;;;;23.17;10.32;;;;;;;-3.01;63.77;99462.78;5055441;28;20517;-79
2022/03/04 05:26:33;;;;;;;27.95;11.70;;;;;;;-3.10;64.29;99458.97;5055393;28;20049;-80
2022/03/04 05:29:02;;;;;;;22.90;11.20;;;;;;;-3.10;64.24;99471.75;5054216;28;20060;-79
2022/03/04 05:31:29;;;;;;;23.65;11.95;;;;;;;-3.26;64.35;99441.09;5054361;28;20055;-79
2022/03/04 05:33:57;;;;;;;26.60;12.32;;;;;;;-3.05;64.20;99469.44;5055344;28;20052;-80
2022/03/04 05:36:24;;;;;;;25.10;11.95;;;;;;;-3.26;64.26;99427.44;5054748;28;20083;-81
2022/03/04 05:38:52;;;;;;;27.02;12.63;;;;;;;-3.22;64.49;99467.69;5054541;28;20589;-81
2022/03/04 05:41:25;;;;;;;26.38;12.43;;;;;;;-3.73;64.69;99383.31;5053245;28;20060;-81
2022/03/04 05:43:52;;;;;;;27.38;12.95;;;;;;;-3.65;64.81;99433.13;5053028;28;20131;-79
2022/03/04 05:46:19;;;;;;;27.30;12.60;;;;;;;-3.45;64.90;99474.16;5033673;28;20111;-81
2022/03/04 05:48:48;;;;;;;31.40;14.35;;;;;;;-3.37;65.07;99488.19;5034883;28;20049;-78
2022/03/04 05:51:15;;;;;;;27.58;13.40;;;;;;;-3.27;65.10;99485.31;5034293;28;20429;-80
2022/03/04 05:53:42;;;;;;;28.25;12.98;;;;;;;-3.40;65.34;99475.25;5035190;28;20053;-82
2022/03/04 05:56:10;;;;;;;27.63;12.75;;;;;;;-3.56;65.63;99489.75;5034804;28;20081;-78
2022/03/04 05:58:38;;;;;;;28.27;13.20;;;;;;;-3.69;65.94;99492.47;5034999;28;20073;-81
2022/03/04 06:01:08;;;;;;;26.33;12.35;;;;;;;-3.77;66.65;99503.94;5034871;28;20053;-83
2022/03/04 06:03:36;;;;;;;28.35;12.43;;;;;;;-3.89;66.51;99493.94;5035289;28;20214;-80
2022/03/04 06:06:05;;;;;;;30.92;12.13;;;;;;;-4.28;66.68;99439.94;5034840;28;20049;-81
2022/03/04 06:08:32;;;;;;;32.25;13.25;;;;;;;-3.71;66.89;99504.25;5035723;28;20081;-81
2022/03/04 06:11:00;;;;;;;31.73;12.82;;;;;;;-3.84;66.45;99486.53;5036137;28;20061;-80
2022/03/04 06:13:27;;;;;;;26.92;13.23;;;;;;;-3.63;66.30;99497.91;5035149;28;20148;-82
2022/03/04 06:15:54;;;;;;;32.28;14.27;;;;;;;-3.67;66.35;99510.44;5034778;28;20053;-80
2022/03/04 06:18:21;;;;;;;25.33;12.25;;;;;;;-3.73;66.55;99519.50;5034574;28;20065;-80
2022/03/04 06:20:48;;;;;;;29.10;12.75;;;;;;;-3.71;66.55;99496.59;5034576;28;20053;-79
2022/03/04 06:23:15;;;;;;;26.42;12.40;;;;;;;-3.69;66.53;99502.69;5034612;28;20056;-80
2022/03/04 06:25:43;;;;;;;27.42;12.93;;;;;;;-3.62;66.65;99520.06;5034546;28;20045;-80
2022/03/04 06:28:10;;;;;;;24.98;12.18;;;;;;;-3.60;66.71;99518.47;5034363;28;20506;-80
2022/03/04 06:30:37;;;;;;;31.27;13.68;;;;;;;-3.70;66.96;99498.34;5035560;28;20057;-80
2022/03/04 06:35:53;;;;;;;27.02;12.13;;;;;;;-3.80;66.67;99491.88;5034345;28;20107;-80
2022/03/04 06:38:21;;;;;;;25.58;12.57;;;;;;;-3.82;67.14;99497.72;5045845;28;20061;-79
2022/03/04 06:40:49;;;;;;;30.48;13.52;;;;;;;-3.85;67.42;99494.97;5053762;28;20056;-80
2022/03/04 06:43:17;;;;;;;26.40;13.15;;;;;;;-3.71;67.42;99505.13;5054382;28;20049;-79
2022/03/04 06:45:46;;;;;;;28.83;13.63;;;;;;;-3.51;67.12;99502.78;5054111;28;20056;-79
2022/03/04 06:48:17;;;;;;;25.63;11.88;;;;;;;-3.64;66.89;99493.56;5053844;28;20076;-80
2022/03/04 06:50:46;;;;;;;27.50;12.73;;;;;;;-3.71;67.16;99497.47;5054238;28;20056;-80
2022/03/04 06:53:13;;;;;;;24.95;12.00;;;;;;;-3.73;67.27;99488.00;5053836;28;20057;-79
2022/03/04 06:55:40;;;;;;;24.50;12.30;;;;;;;-3.65;67.39;99503.72;5054341;28;20509;-79
2022/03/04 06:58:07;;;;;;;24.60;12.30;;;;;;;-3.55;67.21;99504.31;5043822;28;20057;-80
2022/03/04 07:00:34;;;;;;;24.67;12.13;;;;;;;-3.37;66.81;99491.63;5050791;28;20110;-80
2022/03/04 07:03:02;;;;;;;24.52;11.48;;;;;;;-3.40;66.30;99460.81;5054230;28;20067;-79
2022/03/04 07:05:30;;;;;;;25.55;11.73;;;;;;;-3.13;66.58;99494.56;5052320;28;20060;-81
2022/03/04 07:07:57;;;;;;;25.92;12.30;;;;;;;-3.08;66.18;99497.34;5053823;28;20053;-80
2022/03/04 07:10:24;;;;;;;26.00;12.82;;;;;;;-2.97;66.05;99510.69;5053446;28;20053;-80
2022/03/04 07:12:52;;;;;;;27.40;12.95;;;;;;;-2.93;66.02;99502.38;5054148;28;20106;-79
2022/03/04 07:15:19;;;;;;;24.02;12.05;;;;;;;-2.96;65.60;99492.03;5059201;28;20056;-81
2022/03/04 07:17:47;;;;;;;21.98;11.20;;;;;;;-2.83;65.97;99479.06;5057658;28;20060;-79
2022/03/04 07:20:14;;;;;;;23.10;12.63;;;;;;;-2.83;65.51;99485.84;5053315;28;20079;-79
2022/03/04 07:22:43;;;;;;;22.08;10.98;;;;;;;-2.89;65.69;99509.41;5053512;28;20428;-81
2022/03/04 07:25:12;;;;;;;21.60;10.52;;;;;;;-2.97;66.11;99509.03;5053455;28;20143;-79
2022/03/04 07:27:40;;;;;;;23.33;10.65;;;;;;;-2.89;66.00;99512.84;5054106;28;20144;-81
2022/03/04 07:30:10;;;;;;;24.70;11.65;;;;;;;-2.76;65.69;99509.22;5051874;28;20060;-80
2022/03/04 07:32:39;;;;;;;25.27;12.05;;;;;;;-2.65;65.68;99498.66;5053967;28;20102;-80
2022/03/04 07:35:07;;;;;;;22.40;10.50;;;;;;;-2.77;65.41;99510.03;5053585;28;20095;-81
2022/03/04 07:37:39;;;;;;;27.45;12.65;;;;;;;-2.49;65.61;99524.22;5054013;28;20501;-82
2022/03/04 07:40:09;;;;;;;23.83;11.40;;;;;;;-2.31;65.56;99530.22;5048588;28;20127;-81
2022/03/04 07:42:38;;;;;;;23.02;10.90;;;;;;;-2.37;65.28;99529.91;5050043;28;20042;-81
2022/03/04 07:45:08;;;;;;;23.45;11.05;;;;;;;-2.47;65.39;99515.81;5050213;28;20467;-82
2022/03/04 07:47:36;;;;;;;22.90;11.55;;;;;;;-2.34;65.62;99535.22;5060783;28;20061;-81
2022/03/04 07:50:12;;;;;;;24.17;12.23;;;;;;;-2.47;65.37;99482.56;5035827;28;20084;-82
2022/03/04 07:52:40;;;;;;;22.38;11.20;;;;;;;-2.23;65.11;99502.47;5033381;28;20107;-81
2022/03/04 07:55:12;;;;;;;23.85;11.73;;;;;;;-2.12;64.97;99501.28;5033002;28;20053;-84
2022/03/04 07:57:39;;;;;;;19.42;10.60;;;;;;;-1.84;64.59;99535.03;5032696;28;20111;-81
2022/03/04 08:00:10;;;;;;;22.83;10.52;;;;;;;-1.74;64.08;99521.81;5032674;28;20443;-80
2022/03/04 08:02:39;;;;;;;19.25;9.30;;;;;;;-1.74;63.94;99525.28;5032901;28;20052;-80
2022/03/04 08:05:09;;;;;;;24.25;11.25;;;;;;;-1.89;64.18;99522.88;5032928;28;20056;-82
2022/03/04 08:07:37;;;;;;;20.90;10.60;;;;;;;-1.93;64.25;99515.84;5032988;28;20060;-80
2022/03/04 08:10:09;;;;;;;23.15;11.10;;;;;;;-1.75;64.14;99543.13;5035501;28;20056;-80
2022/03/04 08:12:37;;;;;;;22.50;10.73;;;;;;;-1.79;64.79;99525.88;5037462;28;20095;-81
2022/03/04 08:15:05;;;;;;;24.60;10.45;;;;;;;-1.77;64.13;99526.81;5036989;28;20057;-82
2022/03/04 08:17:34;;;;;;;21.95;10.75;;;;;;;-1.76;63.96;99526.03;5037040;28;20057;-80
2022/03/04 08:20:00;;;;;;;20.88;10.65;;;;;;;-1.71;63.82;99530.53;5037171;28;20057;-81
2022/03/04 08:22:29;;;;;;;21.92;10.40;;;;;;;-1.60;63.74;99525.91;5036851;28;20136;-80
2022/03/04 08:24:56;;;;;;;21.92;11.27;;;;;;;-1.71;63.84;99496.38;5035677;28;20128;-81
2022/03/04 08:27:24;;;;;;;20.45;11.02;;;;;;;-1.35;63.45;99498.88;5041777;28;20060;-84
2022/03/04 08:30:17;;;;;;;22.17;10.70;;;;;;;-1.22;63.21;99505.41;5046055;28;20144;-81
2022/03/04 08:32:44;;;;;;;20.73;10.65;;;;;;;-1.05;62.54;99497.66;5037262;28;20501;-81
2022/03/04 08:35:11;;;;;;;19.52;9.80;;;;;;;-0.76;62.03;99507.41;5037727;28;20061;-80
2022/03/04 08:37:38;;;;;;;20.23;10.50;;;;;;;-0.87;61.83;99520.66;5038686;28;20220;-82
2022/03/04 08:40:11;;;;;;;21.35;10.00;;;;;;;-1.16;62.56;99521.03;5036797;28;20111;-81
2022/03/04 08:42:40;;;;;;;23.35;11.13;;;;;;;-1.22;63.06;99513.09;5052534;28;20118;-78
2022/03/04 08:45:08;;;;;;;23.15;11.18;;;;;;;-1.23;62.51;99512.19;5051989;28;20068;-79
2022/03/04 08:47:37;;;;;;;22.80;10.63;;;;;;;-0.88;62.36;99516.34;5086990;28;20115;-81
2022/03/04 08:50:05;;;;;;;21.63;10.15;;;;;;;-0.67;61.43;99524.09;5040739;28;20523;-81
2022/03/04 08:52:33;;;;;;;20.35;9.73;;;;;;;-0.93;61.76;99496.41;5034150;28;20104;-82
2022/03/04 08:54:59;;;;;;;19.00;9.95;;;;;;;-0.83;61.80;99522.53;5037321;28;20053;-80
2022/03/04 08:57:28;;;;;;;19.65;9.30;;;;;;;-0.88;61.84;99488.13;5019624;28;20050;-82
2022/03/04 09:00:00;;;;;;;21.40;11.05;;;;;;;-0.55;61.29;99507.44;5035337;28;20050;-81
2022/03/04 09:02:28;;;;;;;16.25;8.77;;;;;;;-0.50;61.12;99535.03;5036986;28;20053;-79
2022/03/04 09:04:55;;;;;;;19.40;10.18;;;;;;;-0.54;61.48;99537.41;5035569;28;20144;-83
2022/03/04 09:07:22;;;;;;;16.23;9.43;;;;;;;-0.42;60.93;99519.97;5051948;28;20497;-82
2022/03/04 09:09:49;;;;;;;19.30;10.15;;;;;;;-0.51;60.84;99505.06;5055865;28;20041;-80
2022/03/04 09:12:18;;;;;;;17.83;9.50;;;;;;;-0.79;61.18;99499.59;5054991;28;20403;-81
2022/03/04 09:14:48;;;;;;;21.77;10.25;;;;;;;-0.68;61.08;99517.19;5053448;28;20550;-80
2022/03/04 09:17:24;;;;;;;18.92;9.05;;;;;;;-0.83;61.25;99496.00;5054321;28;20083;-81
2022/03/04 09:19:51;;;;;;;19.38;9.45;;;;;;;-1.08;61.47;99488.94;5037056;28;20048;-82
2022/03/04 09:22:24;;;;;;;19.45;9.60;;;;;;;-0.99;61.82;99502.19;5055035;28;20147;-81
2022/03/04 09:24:52;;;;;;;18.50;9.38;;;;;;;-0.87;61.87;99505.25;5053947;28;20053;-80
2022/03/04 09:27:19;;;;;;;17.27;9.15;;;;;;;-0.52;61.13;99513.56;5048083;28;20059;-81
2022/03/04 09:29:46;;;;;;;18.02;8.93;;;;;;;-0.56;60.73;99506.59;5055480;28;20106;-83
2022/03/04 09:32:13;;;;;;;20.02;8.93;;;;;;;-0.60;60.93;99540.63;5053546;28;20057;-81
2022/03/04 09:34:41;;;;;;;17.75;9.77;;;;;;;-0.94;61.03;99503.25;5049733;28;20056;-81
2022/03/04 09:37:08;;;;;;;18.35;9.43;;;;;;;-0.76;61.24;99513.41;5056948;28;20053;-85
2022/03/04 09:39:37;;;;;;;18.92;9.00;;;;;;;-0.27;60.28;99524.88;5055314;28;20564;-82
2022/03/04 09:42:07;;;;;;;19.38;8.55;;;;;;;-0.46;60.03;99500.13;5054198;28;20067;-83
2022/03/04 09:44:34;;;;;;;16.45;9.20;;;;;;;-0.29;59.86;99539.31;5055791;28;20528;-82
2022/03/04 09:47:02;;;;;;;16.85;9.57;;;;;;;-0.80;60.45;99475.63;5055422;28;20112;-82
2022/03/04 09:49:34;;;;;;;15.00;8.50;;;;;;;-0.57;60.20;99491.97;5055854;28;20072;-81
2022/03/04 09:52:17;;;;;;;16.27;9.30;;;;;;;-0.48;59.79;99512.88;5043191;28;20072;-81
2022/03/04 09:54:49;;;;;;;16.02;7.90;;;;;;;-0.52;60.18;99517.81;5035637;28;20056;-83
2022/03/04 09:57:16;;;;;;;14.90;8.00;;;;;;;-0.33;59.91;99514.34;5034503;28;20053;-81
2022/03/04 09:59:44;;;;;;;14.73;7.05;;;;;;;-0.38;59.64;99497.88;5035119;28;20061;-85
2022/03/04 10:02:21;;;;;;;14.95;7.95;;;;;;;-0.11;59.48;99496.41;5033833;28;20495;-82
2022/03/04 10:04:58;;;;;;;15.10;7.45;;;;;;;0.36;58.19;99505.09;5018281;28;20557;-82
2022/03/04 10:07:26;;;;;;;14.90;7.70;;;;;;;0.46;57.81;99461.78;5045217;28;20049;-83
2022/03/04 10:09:53;;;;;;;19.83;8.77;;;;;;;0.10;57.89;99439.88;5033913;28;20057;-81
2022/03/04 10:12:20;;;;;;;16.95;8.88;;;;;;;0.29;57.79;99489.41;5045098;28;20107;-83
2022/03/04 10:15:04;;;;;;;14.32;8.40;;;;;;;0.32;58.07;99495.56;5052435;28;20413;-81
2022/03/04 10:17:34;;;;;;;16.52;7.93;;;;;;;0.24;58.31;99473.81;5054848;28;20052;-82
2022/03/04 10:20:05;;;;;;;15.65;8.27;;;;;;;0.25;58.21;99484.97;5052532;28;20065;-81
2022/03/04 10:22:38;;;;;;;15.93;8.30;;;;;;;0.49;58.07;99492.72;5049084;28;20544;-84
2022/03/04 10:25:25;;;;;;;17.13;8.63;;;;;;;0.61;57.93;99485.50;5036780;28;20441;-83
2022/03/04 10:27:52;;;;;;;15.52;7.88;;;;;;;0.74;57.20;99469.69;5034806;28;20172;-81
2022/03/04 10:30:32;;;;;;;15.80;8.85;;;;;;;0.86;57.48;99476.09;5049715;28;20139;-82
2022/03/04 10:33:09;;;;;;;17.35;8.75;;;;;;;0.92;57.24;99474.59;5054097;28;20049;-80
2022/03/04 10:35:38;;;;;;;13.80;7.10;;;;;;;0.90;56.94;99483.97;5054797;28;20053;-82
2022/03/04 10:38:06;;;;;;;14.63;8.50;;;;;;;0.38;58.08;99470.06;5054483;28;20053;-82
2022/03/04 10:40:36;;;;;;;17.40;7.78;;;;;;;0.31;58.36;99474.94;5052983;28;20060;-83
2022/03/04 10:43:05;;;;;;;14.43;7.63;;;;;;;0.29;58.52;99482.56;5054913;28;20115;-83
2022/03/04 10:45:38;;;;;;;15.75;7.70;;;;;;;0.35;58.26;99493.09;5054233;28;20057;-81
2022/03/04 10:48:09;;;;;;;15.57;8.23;;;;;;;0.29;58.31;99469.72;5052429;28;20048;-83
2022/03/04 10:50:38;;;;;;;15.82;8.20;;;;;;;0.60;57.64;99484.63;5053664;28;20068;-83
2022/03/04 10:53:11;;;;;;;16.33;8.68;;;;;;;0.99;57.07;99486.88;5053292;28;20053;-81
2022/03/04 10:56:04;;;;;;;16.27;7.50;;;;;;;0.93;56.63;99496.94;5052112;28;20053;-82
2022/03/04 10:58:40;;;;;;;16.30;7.97;;;;;;;0.60;57.39;99487.19;5051412;28;20049;-82
2022/03/04 11:01:17;;;;;;;16.73;7.50;;;;;;;0.61;57.85;99488.94;5070079;28;20053;-82
2022/03/04 11:04:07;;;;;;;14.48;7.40;;;;;;;0.31;57.74;99465.53;5069923;28;20516;-84
2022/03/04 11:06:35;;;;;;;15.57;7.35;;;;;;;0.63;57.52;99482.97;5050031;28;20071;-79
2022/03/04 11:09:02;;;;;;;16.13;7.65;;;;;;;0.73;57.11;99485.94;5054044;28;20400;-80
2022/03/04 11:11:30;;;;;;;15.77;8.27;;;;;;;0.84;56.48;99470.91;5053879;28;20041;-82
2022/03/04 11:13:58;;;;;;;15.18;7.60;;;;;;;1.13;56.29;99489.94;5054261;28;20103;-82
2022/03/04 11:16:26;;;;;;;17.17;7.28;;;;;;;1.27;55.71;99476.66;5053395;28;20152;-82
2022/03/04 11:18:54;;;;;;;14.20;7.28;;;;;;;1.33;55.60;99475.16;5053192;28;20100;-80
2022/03/04 11:21:21;;;;;;;15.75;7.40;;;;;;;1.33;55.38;99485.47;5053704;28;20087;-82
2022/03/04 11:23:48;;;;;;;16.65;7.90;;;;;;;1.15;55.93;99461.69;5062850;28;20088;-81
2022/03/04 11:26:15;;;;;;;17.45;8.02;;;;;;;1.41;55.68;99463.44;5067014;28;20048;-81
2022/03/04 11:28:44;;;;;;;12.35;7.07;;;;;;;1.31;55.68;99468.22;5064643;28;20298;-83
2022/03/04 11:31:20;;;;;;;18.00;7.13;;;;;;;0.75;56.39;99467.97;5053627;28;20048;-82